Horton, Alabama
Current Conditions -  °F | °C
As of 3:35 AM on Saturday 20 Dec 2014 (Local Time) from K8A0 Reporting Station
Overcast Overcast  
Wind Chill: 37°   Ceiling: 4700
Heat Index: 37°   Visibility: 10mi
Dew Point: 37°   Wind: 0mph
Humidity: 100%   Direction: NA
Pressure: 30.15"   Gusts: NA
Location:  34.2°N, 86.3°W
Report Text: K8A0 200935Z AUTO 00000KT 10SM BKN047 OVC055 03/03 A3015 RMK AO2
Loading
Personal Weather Stations






























Interactive Weather Map New forecast layout! Learn more

10-Day Weather Forecast

Advertisements
Track Severe Weather on mobile